sensor_id;sensor_type;location;lat;lon;timestamp;pressure;altitude;pressure_sealevel;temperature;humidity
23659;BME280;12006;42.666;23.326;2023-03-26T00:01:21;-24140.81;;;10.64;100.00
23659;BME280;12006;42.666;23.326;2023-03-26T00:03:48;-24140.31;;;10.62;100.00
23659;BME280;12006;42.666;23.326;2023-03-26T00:06:20;-24139.09;;;10.59;100.00
23659;BME280;12006;42.666;23.326;2023-03-26T00:08:50;-24138.94;;;10.58;100.00
23659;BME280;12006;42.666;23.326;2023-03-26T00:11:17;-24139.44;;;10.60;100.00
23659;BME280;12006;42.666;23.326;2023-03-26T00:13:43;-24139.78;;;10.61;100.00
23659;BME280;12006;42.666;23.326;2023-03-26T00:16:11;-24138.06;;;10.56;100.00
23659;BME280;12006;42.666;23.326;2023-03-26T00:18:38;-24137.72;;;10.55;100.00
23659;BME280;12006;42.666;23.326;2023-03-26T00:21:05;-24137.03;;;10.53;100.00
23659;BME280;12006;42.666;23.326;2023-03-26T00:23:33;-24135.31;;;10.48;100.00
23659;BME280;12006;42.666;23.326;2023-03-26T00:26:00;-24135.50;;;10.48;100.00
23659;BME280;12006;42.666;23.326;2023-03-26T00:28:27;-24135.84;;;10.49;100.00
23659;BME280;12006;42.666;23.326;2023-03-26T00:31:01;-24134.63;;;10.46;100.00
23659;BME280;12006;42.666;23.326;2023-03-26T00:33:27;-24134.63;;;10.46;100.00
23659;BME280;12006;42.666;23.326;2023-03-26T00:35:54;-24135.84;;;10.49;100.00
23659;BME280;12006;42.666;23.326;2023-03-26T00:38:23;-24136.34;;;10.51;100.00
23659;BME280;12006;42.666;23.326;2023-03-26T00:40:50;-24137.56;;;10.54;100.00
23659;BME280;12006;42.666;23.326;2023-03-26T00:43:17;-24137.56;;;10.54;100.00
23659;BME280;12006;42.666;23.326;2023-03-26T00:45:50;-24137.22;;;10.53;100.00
23659;BME280;12006;42.666;23.326;2023-03-26T00:48:17;-24136.19;;;10.50;100.00
23659;BME280;12006;42.666;23.326;2023-03-26T00:50:45;-24136.69;;;10.52;100.00
23659;BME280;12006;42.666;23.326;2023-03-26T00:53:11;-24137.03;;;10.53;100.00
23659;BME280;12006;42.666;23.326;2023-03-26T00:55:39;-24137.38;;;10.54;100.00
23659;BME280;12006;42.666;23.326;2023-03-26T00:58:05;-24139.44;;;10.60;100.00
23659;BME280;12006;42.666;23.326;2023-03-26T01:00:33;-24138.41;;;10.57;100.00
23659;BME280;12006;42.666;23.326;2023-03-26T01:03:01;-24140.81;;;10.64;100.00
23659;BME280;12006;42.666;23.326;2023-03-26T01:05:40;-24144.59;;;10.75;100.00
23659;BME280;12006;42.666;23.326;2023-03-26T01:10:56;-24147.00;;;10.82;100.00
23659;BME280;12006;42.666;23.326;2023-03-26T01:13:30;-24146.31;;;10.80;100.00
23659;BME280;12006;42.666;23.326;2023-03-26T01:15:57;-24144.59;;;10.75;100.00
23659;BME280;12006;42.666;23.326;2023-03-26T01:18:28;-24143.56;;;10.72;100.00
23659;BME280;12006;42.666;23.326;2023-03-26T01:20:59;-24141.16;;;10.65;100.00
23659;BME280;12006;42.666;23.326;2023-03-26T01:23:46;-24139.97;;;10.61;100.00
23659;BME280;12006;42.666;23.326;2023-03-26T01:26:27;-24137.72;;;10.55;100.00
23659;BME280;12006;42.666;23.326;2023-03-26T01:28:58;-24138.41;;;10.57;100.00
23659;BME280;12006;42.666;23.326;2023-03-26T01:34:20;-24137.38;;;10.54;100.00
23659;BME280;12006;42.666;23.326;2023-03-26T01:37:06;-24137.38;;;10.54;100.00
23659;BME280;12006;42.666;23.326;2023-03-26T01:39:43;-24137.03;;;10.53;100.00
23659;BME280;12006;42.666;23.326;2023-03-26T01:43:33;-24138.06;;;10.56;100.00
23659;BME280;12006;42.666;23.326;2023-03-26T01:45:31;-24137.03;;;10.53;100.00
23659;BME280;12006;42.666;23.326;2023-03-26T01:47:58;-24137.38;;;10.54;100.00
23659;BME280;12006;42.666;23.326;2023-03-26T01:50:23;-24136.69;;;10.52;100.00
23659;BME280;12006;42.666;23.326;2023-03-26T01:52:49;-24134.28;;;10.45;100.00
23659;BME280;12006;42.666;23.326;2023-03-26T01:55:15;-24137.72;;;10.55;100.00
23659;BME280;12006;42.666;23.326;2023-03-26T01:58:17;-24137.22;;;10.53;100.00
23659;BME280;12006;42.666;23.326;2023-03-26T02:01:02;-24137.72;;;10.55;100.00
23659;BME280;12006;42.666;23.326;2023-03-26T02:03:34;-24138.06;;;10.56;100.00
23659;BME280;12006;42.666;23.326;2023-03-26T02:06:22;-24133.94;;;10.44;100.00
23659;BME280;12006;42.666;23.326;2023-03-26T02:09:05;-24132.91;;;10.41;100.00
23659;BME280;12006;42.666;23.326;2023-03-26T02:11:34;-24125.03;;;10.18;100.00
23659;BME280;12006;42.666;23.326;2023-03-26T02:14:03;-24125.03;;;10.18;100.00
23659;BME280;12006;42.666;23.326;2023-03-26T02:16:29;-24124.00;;;10.15;100.00
23659;BME280;12006;42.666;23.326;2023-03-26T02:18:54;-24120.72;;;10.06;100.00
23659;BME280;12006;42.666;23.326;2023-03-26T02:21:22;-24119.53;;;10.02;100.00
23659;BME280;12006;42.666;23.326;2023-03-26T02:23:56;-24119.69;;;10.03;100.00
23659;BME280;12006;42.666;23.326;2023-03-26T02:26:29;-24118.84;;;10.00;100.00
23659;BME280;12006;42.666;23.326;2023-03-26T02:28:55;-24118.31;;;9.99;100.00
23659;BME280;12006;42.666;23.326;2023-03-26T02:31:21;-24122.63;;;10.11;100.00
23659;BME280;12006;42.666;23.326;2023-03-26T02:33:51;-24127.09;;;10.24;100.00
23659;BME280;12006;42.666;23.326;2023-03-26T02:36:16;-24130.00;;;10.32;100.00
23659;BME280;12006;42.666;23.326;2023-03-26T02:38:43;-24131.72;;;10.37;100.00
23659;BME280;12006;42.666;23.326;2023-03-26T02:41:09;-24131.72;;;10.37;100.00
23659;BME280;12006;42.666;23.326;2023-03-26T02:43:34;-24131.19;;;10.36;100.00
23659;BME280;12006;42.666;23.326;2023-03-26T02:46:00;-24132.59;;;10.40;100.00
23659;BME280;12006;42.666;23.326;2023-03-26T02:48:25;-24131.38;;;10.36;100.00
23659;BME280;12006;42.666;23.326;2023-03-26T02:50:51;-24129.50;;;10.31;100.00
23659;BME280;12006;42.666;23.326;2023-03-26T02:53:19;-24123.13;;;10.13;100.00
23659;BME280;12006;42.666;23.326;2023-03-26T02:55:46;-24121.94;;;10.09;100.00
23659;BME280;12006;42.666;23.326;2023-03-26T02:58:11;-24119.53;;;10.02;100.00
23659;BME280;12006;42.666;23.326;2023-03-26T03:00:42;-24119.19;;;10.01;100.00
23659;BME280;12006;42.666;23.326;2023-03-26T03:03:08;-24118.16;;;9.98;100.00
23659;BME280;12006;42.666;23.326;2023-03-26T03:05:33;-24114.38;;;9.87;100.00
23659;BME280;12006;42.666;23.326;2023-03-26T03:08:03;-24114.38;;;9.87;100.00
23659;BME280;12006;42.666;23.326;2023-03-26T03:10:29;-24113.50;;;9.85;100.00
23659;BME280;12006;42.666;23.326;2023-03-26T03:12:57;-24112.31;;;9.81;100.00
23659;BME280;12006;42.666;23.326;2023-03-26T03:15:22;-24110.59;;;9.76;100.00
23659;BME280;12006;42.666;23.326;2023-03-26T03:17:48;-24107.84;;;9.68;100.00
23659;BME280;12006;42.666;23.326;2023-03-26T03:20:13;-24105.09;;;9.61;100.00
23659;BME280;12006;42.666;23.326;2023-03-26T03:22:39;-24105.28;;;9.61;100.00
23659;BME280;12006;42.666;23.326;2023-03-26T03:25:05;-24103.72;;;9.57;100.00
23659;BME280;12006;42.666;23.326;2023-03-26T03:27:33;-24102.00;;;9.52;100.00
23659;BME280;12006;42.666;23.326;2023-03-26T03:29:59;-24101.16;;;9.49;100.00
23659;BME280;12006;42.666;23.326;2023-03-26T03:32:24;-24100.97;;;9.49;100.00
23659;BME280;12006;42.666;23.326;2023-03-26T03:34:50;-24097.38;;;9.38;100.00
23659;BME280;12006;42.666;23.326;2023-03-26T03:37:16;-24098.22;;;9.41;100.00
23659;BME280;12006;42.666;23.326;2023-03-26T03:39:42;-24097.53;;;9.39;100.00
23659;BME280;12006;42.666;23.326;2023-03-26T03:42:08;-24097.19;;;9.38;100.00
23659;BME280;12006;42.666;23.326;2023-03-26T03:44:33;-24095.47;;;9.33;100.00
23659;BME280;12006;42.666;23.326;2023-03-26T03:46:58;-24095.13;;;9.32;100.00
23659;BME280;12006;42.666;23.326;2023-03-26T03:49:24;-24096.50;;;9.36;100.00
23659;BME280;12006;42.666;23.326;2023-03-26T03:51:49;-24096.69;;;9.36;100.00
23659;BME280;12006;42.666;23.326;2023-03-26T03:54:15;-24095.47;;;9.33;100.00
23659;BME280;12006;42.666;23.326;2023-03-26T03:56:40;-24087.59;;;9.10;100.00
23659;BME280;12006;42.666;23.326;2023-03-26T03:59:05;-24097.38;;;9.38;100.00
23659;BME280;12006;42.666;23.326;2023-03-26T04:01:33;-24098.22;;;9.41;100.00
23659;BME280;12006;42.666;23.326;2023-03-26T04:03:58;-24098.91;;;9.43;100.00
23659;BME280;12006;42.666;23.326;2023-03-26T04:06:24;-24097.88;;;9.40;100.00
23659;BME280;12006;42.666;23.326;2023-03-26T04:08:50;-24099.59;;;9.45;100.00
23659;BME280;12006;42.666;23.326;2023-03-26T04:11:16;-24098.91;;;9.43;100.00
23659;BME280;12006;42.666;23.326;2023-03-26T04:13:42;-24098.41;;;9.41;100.00
23659;BME280;12006;42.666;23.326;2023-03-26T04:16:08;-24096.84;;;9.37;100.00
23659;BME280;12006;42.666;23.326;2023-03-26T04:18:34;-24097.03;;;9.37;100.00
23659;BME280;12006;42.666;23.326;2023-03-26T04:21:02;-24097.53;;;9.39;100.00
23659;BME280;12006;42.666;23.326;2023-03-26T04:23:30;-24098.22;;;9.41;100.00
23659;BME280;12006;42.666;23.326;2023-03-26T04:25:57;-24099.44;;;9.44;100.00
23659;BME280;12006;42.666;23.326;2023-03-26T04:28:30;-24100.13;;;9.46;100.00
23659;BME280;12006;42.666;23.326;2023-03-26T04:30:58;-24099.94;;;9.46;100.00
23659;BME280;12006;42.666;23.326;2023-03-26T04:33:30;-24099.25;;;9.44;100.00
23659;BME280;12006;42.666;23.326;2023-03-26T04:35:56;-24099.44;;;9.44;100.00
23659;BME280;12006;42.666;23.326;2023-03-26T04:38:26;-24098.41;;;9.41;100.00
23659;BME280;12006;42.666;23.326;2023-03-26T04:40:52;-24100.47;;;9.47;100.00
23659;BME280;12006;42.666;23.326;2023-03-26T04:43:17;-24102.69;;;9.54;100.00
23659;BME280;12006;42.666;23.326;2023-03-26T04:45:43;-24102.00;;;9.52;100.00
23659;BME280;12006;42.666;23.326;2023-03-26T04:48:11;-24102.00;;;9.52;100.00
23659;BME280;12006;42.666;23.326;2023-03-26T04:50:43;-24103.03;;;9.55;100.00
23659;BME280;12006;42.666;23.326;2023-03-26T04:53:13;-24103.91;;;9.57;100.00
23659;BME280;12006;42.666;23.326;2023-03-26T04:58:32;-24107.16;;;9.66;100.00
23659;BME280;12006;42.666;23.326;2023-03-26T05:01:01;-24109.56;;;9.73;100.00
23659;BME280;12006;42.666;23.326;2023-03-26T05:03:28;-24108.88;;;9.71;100.00
23659;BME280;12006;42.666;23.326;2023-03-26T05:06:00;-24106.81;;;9.65;100.00
23659;BME280;12006;42.666;23.326;2023-03-26T05:08:26;-24111.97;;;9.80;100.00
23659;BME280;12006;42.666;23.326;2023-03-26T05:10:55;-24114.19;;;9.87;100.00
23659;BME280;12006;42.666;23.326;2023-03-26T05:13:22;-24115.41;;;9.90;100.00
23659;BME280;12006;42.666;23.326;2023-03-26T05:15:47;-24115.75;;;9.91;100.00
23659;BME280;12006;42.666;23.326;2023-03-26T05:18:13;-24118.31;;;9.99;100.00
23659;BME280;12006;42.666;23.326;2023-03-26T05:20:38;-24124.16;;;10.16;100.00
23659;BME280;12006;42.666;23.326;2023-03-26T05:23:04;-24130.00;;;10.32;100.00
23659;BME280;12006;42.666;23.326;2023-03-26T05:25:29;-24132.91;;;10.41;100.00
23659;BME280;12006;42.666;23.326;2023-03-26T05:27:55;-24132.22;;;10.39;100.00
23659;BME280;12006;42.666;23.326;2023-03-26T05:30:21;-24128.97;;;10.29;100.00
23659;BME280;12006;42.666;23.326;2023-03-26T05:32:47;-24122.63;;;10.11;100.00
23659;BME280;12006;42.666;23.326;2023-03-26T05:35:14;-24123.31;;;10.13;100.00
23659;BME280;12006;42.666;23.326;2023-03-26T05:37:42;-24123.31;;;10.13;100.00
23659;BME280;12006;42.666;23.326;2023-03-26T05:40:08;-24124.50;;;10.17;100.00
23659;BME280;12006;42.666;23.326;2023-03-26T05:42:37;-24123.66;;;10.14;100.00
23659;BME280;12006;42.666;23.326;2023-03-26T05:45:04;-24123.66;;;10.14;100.00
23659;BME280;12006;42.666;23.326;2023-03-26T05:47:30;-24125.53;;;10.20;100.00
23659;BME280;12006;42.666;23.326;2023-03-26T05:49:56;-24126.41;;;10.22;100.00
23659;BME280;12006;42.666;23.326;2023-03-26T05:52:21;-24129.50;;;10.31;100.00
23659;BME280;12006;42.666;23.326;2023-03-26T05:54:47;-24133.59;;;10.43;100.00
23659;BME280;12006;42.666;23.326;2023-03-26T05:57:12;-24134.97;;;10.47;100.00
23659;BME280;12006;42.666;23.326;2023-03-26T05:59:38;-24131.53;;;10.37;100.00
23659;BME280;12006;42.666;23.326;2023-03-26T06:02:03;-24126.06;;;10.21;100.00
23659;BME280;12006;42.666;23.326;2023-03-26T06:04:28;-24125.72;;;10.20;100.00
23659;BME280;12006;42.666;23.326;2023-03-26T06:06:56;-24127.78;;;10.26;100.00
23659;BME280;12006;42.666;23.326;2023-03-26T06:09:22;-24128.13;;;10.27;100.00
23659;BME280;12006;42.666;23.326;2023-03-26T06:11:47;-24130.53;;;10.34;100.00
23659;BME280;12006;42.666;23.326;2023-03-26T06:14:13;-24131.53;;;10.37;100.00
23659;BME280;12006;42.666;23.326;2023-03-26T06:16:38;-24127.44;;;10.25;100.00
23659;BME280;12006;42.666;23.326;2023-03-26T06:19:04;-24127.44;;;10.25;100.00
23659;BME280;12006;42.666;23.326;2023-03-26T06:21:29;-24133.25;;;10.42;100.00
23659;BME280;12006;42.666;23.326;2023-03-26T06:23:55;-24137.72;;;10.55;100.00
23659;BME280;12006;42.666;23.326;2023-03-26T06:26:21;-24139.63;;;10.60;100.00
23659;BME280;12006;42.666;23.326;2023-03-26T06:28:46;-24136.34;;;10.51;100.00
23659;BME280;12006;42.666;23.326;2023-03-26T06:31:12;-24134.28;;;10.45;100.00
23659;BME280;12006;42.666;23.326;2023-03-26T06:33:37;-24136.88;;;10.52;100.00
23659;BME280;12006;42.666;23.326;2023-03-26T06:36:03;-24139.09;;;10.59;100.00
23659;BME280;12006;42.666;23.326;2023-03-26T06:38:28;-24143.38;;;10.71;100.00
23659;BME280;12006;42.666;23.326;2023-03-26T06:41:00;-24145.44;;;10.77;100.00
23659;BME280;12006;42.666;23.326;2023-03-26T06:43:26;-24143.56;;;10.72;100.00
23659;BME280;12006;42.666;23.326;2023-03-26T06:45:51;-24142.88;;;10.70;100.00
23659;BME280;12006;42.666;23.326;2023-03-26T06:48:17;-24143.38;;;10.71;100.00
23659;BME280;12006;42.666;23.326;2023-03-26T06:50:42;-24145.63;;;10.78;100.00
23659;BME280;12006;42.666;23.326;2023-03-26T06:53:09;-24149.06;;;10.88;100.00
23659;BME280;12006;42.666;23.326;2023-03-26T06:55:35;-24145.97;;;10.79;100.00
23659;BME280;12006;42.666;23.326;2023-03-26T06:58:00;-24152.50;;;10.97;100.00
23659;BME280;12006;42.666;23.326;2023-03-26T07:00:26;-24154.53;;;11.03;100.00
23659;BME280;12006;42.666;23.326;2023-03-26T07:02:51;-24155.06;;;11.05;100.00
23659;BME280;12006;42.666;23.326;2023-03-26T07:05:17;-24150.78;;;10.92;100.00
23659;BME280;12006;42.666;23.326;2023-03-26T07:07:42;-24157.97;;;11.13;100.00
23659;BME280;12006;42.666;23.326;2023-03-26T07:10:08;-24162.63;;;11.27;100.00
23659;BME280;12006;42.666;23.326;2023-03-26T07:12:33;-24163.81;;;11.30;100.00
23659;BME280;12006;42.666;23.326;2023-03-26T07:15:01;-24161.06;;;11.22;100.00
23659;BME280;12006;42.666;23.326;2023-03-26T07:17:27;-24154.88;;;11.04;100.00
23659;BME280;12006;42.666;23.326;2023-03-26T07:19:52;-24154.53;;;11.03;100.00
23659;BME280;12006;42.666;23.326;2023-03-26T07:22:20;-24155.56;;;11.06;100.00
23659;BME280;12006;42.666;23.326;2023-03-26T07:24:46;-24158.66;;;11.15;100.00
23659;BME280;12006;42.666;23.326;2023-03-26T07:27:35;-24158.16;;;11.14;100.00
23659;BME280;12006;42.666;23.326;2023-03-26T07:33:10;-24161.41;;;11.23;100.00
23659;BME280;12006;42.666;23.326;2023-03-26T07:35:54;-24166.56;;;11.38;100.00
23659;BME280;12006;42.666;23.326;2023-03-26T07:38:35;-24170.16;;;11.48;100.00
23659;BME280;12006;42.666;23.326;2023-03-26T07:41:20;-24168.63;;;11.44;100.00
23659;BME280;12006;42.666;23.326;2023-03-26T07:46:27;-24168.09;;;11.43;100.00
23659;BME280;12006;42.666;23.326;2023-03-26T07:48:53;-24170.50;;;11.49;100.00
23659;BME280;12006;42.666;23.326;2023-03-26T07:51:21;-24171.22;;;11.57;100.00
23659;BME280;12006;42.666;23.326;2023-03-26T07:53:47;-24173.63;;;11.64;100.00
23659;BME280;12006;42.666;23.326;2023-03-26T07:56:15;-24178.59;;;11.78;100.00
23659;BME280;12006;42.666;23.326;2023-03-26T08:01:34;-23864.72;;;11.94;100.00
23659;BME280;12006;42.666;23.326;2023-03-26T08:06:57;-23868.28;;;12.04;100.00
23659;BME280;12006;42.666;23.326;2023-03-26T08:09:34;-23552.84;;;12.15;96.55
23659;BME280;12006;42.666;23.326;2023-03-26T08:12:18;-23233.16;;;12.14;86.46
23659;BME280;12006;42.666;23.326;2023-03-26T08:17:38;-23235.13;;;12.20;93.11
23659;BME280;12006;42.666;23.326;2023-03-26T08:23:04;-23562.16;;;12.43;91.53
23659;BME280;12006;42.666;23.326;2023-03-26T08:31:41;-23574.63;;;12.80;88.25
23659;BME280;12006;42.666;23.326;2023-03-26T08:34:10;-23571.47;;;12.71;86.41
23659;BME280;12006;42.666;23.326;2023-03-26T08:36:36;-23575.13;;;12.82;86.64
23659;BME280;12006;42.666;23.326;2023-03-26T08:39:02;-23574.78;;;12.81;84.28
23659;BME280;12006;42.666;23.326;2023-03-26T09:00:52;-23259.69;;;12.95;78.54
23659;BME280;12006;42.666;23.326;2023-03-26T09:09:23;-23262.97;;;13.05;74.47
23659;BME280;12006;42.666;23.326;2023-03-26T09:12:11;-23263.63;;;13.07;77.57
23659;BME280;12006;42.666;23.326;2023-03-26T09:20:05;-23269.16;;;13.24;75.49
23659;BME280;12006;42.666;23.326;2023-03-26T09:22:51;-23596.22;;;13.45;75.16
23659;BME280;12006;42.666;23.326;2023-03-26T09:28:34;-23607.53;;;13.79;67.03
23659;BME280;12006;42.666;23.326;2023-03-26T09:36:44;-23615.34;;;14.02;64.41
23659;BME280;12006;42.666;23.326;2023-03-26T09:42:33;-23617.34;;;14.08;68.46
23659;BME280;12006;42.666;23.326;2023-03-26T09:45:06;-23944.75;;;14.29;68.42
23659;BME280;12006;42.666;23.326;2023-03-26T09:52:56;-23623.66;;;14.27;65.00
23659;BME280;12006;42.666;23.326;2023-03-26T09:58:03;-23959.91;;;14.73;69.00
23659;BME280;12006;42.666;23.326;2023-03-26T10:00:40;-23958.56;;;14.69;63.03
23659;BME280;12006;42.666;23.326;2023-03-26T10:05:50;-23635.44;;;14.62;60.55
23659;BME280;12006;42.666;23.326;2023-03-26T10:14:08;-23966.31;;;14.92;60.89
23659;BME280;12006;42.666;23.326;2023-03-26T10:16:51;-23967.00;;;14.94;59.82
23659;BME280;12006;42.666;23.326;2023-03-26T10:31:22;-23659.69;;;15.34;51.30
23659;BME280;12006;42.666;23.326;2023-03-26T10:36:36;-23660.19;;;15.36;53.37
23659;BME280;12006;42.666;23.326;2023-03-26T10:53:00;-23334.75;;;15.22;50.05
23659;BME280;12006;42.666;23.326;2023-03-26T10:58:24;-23004.91;;;14.95;48.89
23659;BME280;12006;42.666;23.326;2023-03-26T11:01:10;-23009.91;;;15.11;49.95
23659;BME280;12006;42.666;23.326;2023-03-26T11:03:44;-23341.44;;;15.43;48.87
23659;BME280;12006;42.666;23.326;2023-03-26T11:11:42;-23685.56;;;16.12;45.74
23659;BME280;12006;42.666;23.326;2023-03-26T11:14:41;-23031.28;;;15.77;43.39
23659;BME280;12006;42.666;23.326;2023-03-26T11:20:31;-22706.19;;;15.65;43.47
23659;BME280;12006;42.666;23.326;2023-03-26T11:25:27;-23033.06;;;15.82;44.14
23659;BME280;12006;42.666;23.326;2023-03-26T11:33:23;-22703.66;;;15.57;44.57
23659;BME280;12006;42.666;23.326;2023-03-26T11:35:51;-22709.19;;;15.74;44.05
23659;BME280;12006;42.666;23.326;2023-03-26T11:38:27;-23032.25;;;15.79;44.04
23659;BME280;12006;42.666;23.326;2023-03-26T11:40:58;-23039.63;;;16.02;43.10
23659;BME280;12006;42.666;23.326;2023-03-26T11:43:32;-23043.66;;;16.15;41.94
23659;BME280;12006;42.666;23.326;2023-03-26T11:46:02;-23043.00;;;16.13;42.33
23659;BME280;12006;42.666;23.326;2023-03-26T11:48:35;-23047.19;;;16.26;42.16
23659;BME280;12006;42.666;23.326;2023-03-26T11:51:09;-23047.69;;;16.27;41.80
23659;BME280;12006;42.666;23.326;2023-03-26T11:53:39;-23374.09;;;16.42;42.39
23659;BME280;12006;42.666;23.326;2023-03-26T11:59:00;-23376.72;;;16.50;42.97
23659;BME280;12006;42.666;23.326;2023-03-26T12:01:40;-23052.81;;;16.43;41.22
23659;BME280;12006;42.666;23.326;2023-03-26T12:04:11;-22719.97;;;16.08;42.53
23659;BME280;12006;42.666;23.326;2023-03-26T12:07:17;-23045.91;;;16.22;41.84
23659;BME280;12006;42.666;23.326;2023-03-26T12:09:56;-23047.69;;;16.27;41.55
23659;BME280;12006;42.666;23.326;2023-03-26T12:12:40;-23054.91;;;16.49;41.61
23659;BME280;12006;42.666;23.326;2023-03-26T12:15:17;-22729.28;;;16.37;39.47
23659;BME280;12006;42.666;23.326;2023-03-26T12:17:44;-23052.97;;;16.43;40.24
23659;BME280;12006;42.666;23.326;2023-03-26T12:22:49;-23056.69;;;16.55;39.83
23659;BME280;12006;42.666;23.326;2023-03-26T12:28:00;-23386.66;;;16.80;40.28
23659;BME280;12006;42.666;23.326;2023-03-26T12:30:34;-23393.38;;;17.00;39.94
23659;BME280;12006;42.666;23.326;2023-03-26T12:33:18;-23399.06;;;17.18;39.25
23659;BME280;12006;42.666;23.326;2023-03-26T12:35:46;-23070.97;;;16.99;38.89
23659;BME280;12006;42.666;23.326;2023-03-26T12:38:21;-22735.13;;;16.55;39.10
23659;BME280;12006;42.666;23.326;2023-03-26T12:40:53;-22410.47;;;16.46;36.76
23659;BME280;12006;42.666;23.326;2023-03-26T12:43:35;-22088.13;;;16.44;36.14
23659;BME280;12006;42.666;23.326;2023-03-26T12:46:01;-22088.75;;;16.46;36.63
23659;BME280;12006;42.666;23.326;2023-03-26T12:48:26;-22412.31;;;16.52;37.13
23659;BME280;12006;42.666;23.326;2023-03-26T12:51:34;-22093.47;;;16.61;35.84
23659;BME280;12006;42.666;23.326;2023-03-26T12:54:26;-22417.28;;;16.68;36.37
23659;BME280;12006;42.666;23.326;2023-03-26T12:59:27;-22097.91;;;16.76;34.87
23659;BME280;12006;42.666;23.326;2023-03-26T13:02:29;-22099.00;;;16.79;35.17
23659;BME280;12006;42.666;23.326;2023-03-26T13:22:40;-21449.97;;;16.62;34.33
23659;BME280;12006;42.666;23.326;2023-03-26T13:31:19;-21120.28;;;16.35;34.21
23659;BME280;12006;42.666;23.326;2023-03-26T13:42:44;-21124.03;;;16.48;34.09
23659;BME280;12006;42.666;23.326;2023-03-26T13:47:54;-21124.91;;;16.51;33.14
23659;BME280;12006;42.666;23.326;2023-03-26T13:52:55;-20805.91;;;16.61;32.16
23659;BME280;12006;42.666;23.326;2023-03-26T13:55:35;-21126.06;;;16.55;33.43
23659;BME280;12006;42.666;23.326;2023-03-26T13:58:11;-20801.34;;;16.45;32.77
23659;BME280;12006;42.666;23.326;2023-03-26T14:00:57;-20800.78;;;16.43;33.01
23659;BME280;12006;42.666;23.326;2023-03-26T14:03:48;-20800.50;;;16.42;32.83
23659;BME280;12006;42.666;23.326;2023-03-26T14:08:54;-20476.03;;;16.33;31.89
23659;BME280;12006;42.666;23.326;2023-03-26T14:11:34;-20476.88;;;16.36;32.15
23659;BME280;12006;42.666;23.326;2023-03-26T14:14:15;-20476.31;;;16.34;33.18
23659;BME280;12006;42.666;23.326;2023-03-26T14:16:50;-20804.34;;;16.55;34.45
23659;BME280;12006;42.666;23.326;2023-03-26T14:19:41;-20801.66;;;16.46;34.47
23659;BME280;12006;42.666;23.326;2023-03-26T14:22:15;-20801.06;;;16.44;34.41
23659;BME280;12006;42.666;23.326;2023-03-26T14:28:00;-20800.66;;;16.42;35.58
23659;BME280;12006;42.666;23.326;2023-03-26T14:31:01;-20799.38;;;16.38;35.04
23659;BME280;12006;42.666;23.326;2023-03-26T14:42:36;-20800.22;;;16.41;36.12
23659;BME280;12006;42.666;23.326;2023-03-26T14:51:04;-21121.44;;;16.39;36.75
23659;BME280;12006;42.666;23.326;2023-03-26T14:53:39;-21121.56;;;16.39;37.07
23659;BME280;12006;42.666;23.326;2023-03-26T15:16:06;-20798.50;;;16.35;35.78
23659;BME280;12006;42.666;23.326;2023-03-26T15:29:33;-20469.88;;;16.11;36.49
23659;BME280;12006;42.666;23.326;2023-03-26T15:46:27;-20463.28;;;15.87;39.54
23659;BME280;12006;42.666;23.326;2023-03-26T15:51:57;-20462.59;;;15.85;39.04
23659;BME280;12006;42.666;23.326;2023-03-26T16:11:01;-20459.66;;;15.75;39.85
23659;BME280;12006;42.666;23.326;2023-03-26T16:23:51;-20132.94;;;15.56;40.61
23659;BME280;12006;42.666;23.326;2023-03-26T16:26:33;-20132.66;;;15.55;40.68
23659;BME280;12006;42.666;23.326;2023-03-26T16:32:12;-20129.09;;;15.42;41.51
23659;BME280;12006;42.666;23.326;2023-03-26T16:34:44;-20129.09;;;15.42;42.82
23659;BME280;12006;42.666;23.326;2023-03-26T16:46:23;-19477.22;;;15.08;42.70
23659;BME280;12006;42.666;23.326;2023-03-26T16:48:59;-19475.66;;;15.02;42.89
23659;BME280;12006;42.666;23.326;2023-03-26T16:51:48;-19797.09;;;15.03;43.19
23659;BME280;12006;42.666;23.326;2023-03-26T16:54:23;-19473.66;;;14.94;44.29
23659;BME280;12006;42.666;23.326;2023-03-26T17:02:34;-19466.38;;;14.67;45.49
23659;BME280;12006;42.666;23.326;2023-03-26T17:05:32;-19467.59;;;14.71;46.05
23659;BME280;12006;42.666;23.326;2023-03-26T17:08:25;-19144.22;;;14.62;46.18
23659;BME280;12006;42.666;23.326;2023-03-26T17:13:38;-19140.44;;;14.48;46.60
23659;BME280;12006;42.666;23.326;2023-03-26T17:16:18;-19461.22;;;14.48;48.88
23659;BME280;12006;42.666;23.326;2023-03-26T17:24:51;-18814.56;;;14.29;48.87
23659;BME280;12006;42.666;23.326;2023-03-26T17:35:46;-18811.38;;;14.16;49.23
23659;BME280;12006;42.666;23.326;2023-03-26T17:40:55;-18808.94;;;14.07;50.50
23659;BME280;12006;42.666;23.326;2023-03-26T17:43:44;-18807.44;;;14.01;51.12
23659;BME280;12006;42.666;23.326;2023-03-26T17:46:33;-18806.03;;;13.95;51.91
23659;BME280;12006;42.666;23.326;2023-03-26T17:54:45;-18477.63;;;13.65;56.09
23659;BME280;12006;42.666;23.326;2023-03-26T17:57:19;-18473.00;;;13.46;57.55
23659;BME280;12006;42.666;23.326;2023-03-26T17:59:46;-18151.31;;;13.41;56.91
23659;BME280;12006;42.666;23.326;2023-03-26T18:02:17;-18472.50;;;13.44;58.46
23659;BME280;12006;42.666;23.326;2023-03-26T18:04:45;-18151.56;;;13.42;56.19
23659;BME280;12006;42.666;23.326;2023-03-26T18:18:36;-17501.72;;;13.05;57.79
23659;BME280;12006;42.666;23.326;2023-03-26T18:21:05;-17819.88;;;12.96;60.29
23659;BME280;12006;42.666;23.326;2023-03-26T18:23:38;-17500.09;;;12.98;59.96
23659;BME280;12006;42.666;23.326;2023-03-26T18:26:21;-17499.16;;;12.94;60.14
23659;BME280;12006;42.666;23.326;2023-03-26T18:28:50;-17498.91;;;12.93;60.32
23659;BME280;12006;42.666;23.326;2023-03-26T18:31:19;-17818.66;;;12.91;63.48
23659;BME280;12006;42.666;23.326;2023-03-26T18:33:48;-17494.22;;;12.73;65.18